createdAt,value
2019-03-29T00:02:26.343Z,11.07
2019-03-29T00:04:56.503Z,11.30
2019-03-29T00:07:39.016Z,10.53
2019-03-29T00:09:58.219Z,11.10
2019-03-29T00:12:28.214Z,10.17
2019-03-29T00:14:58.649Z,9.73
2019-03-29T00:17:28.655Z,9.33
2019-03-29T00:19:58.851Z,9.47
2019-03-29T00:22:28.715Z,9.27
2019-03-29T00:24:59.234Z,8.80
2019-03-29T00:27:29.291Z,10.47
2019-03-29T00:29:59.285Z,10.83
2019-03-29T00:32:29.205Z,10.33
2019-03-29T00:34:59.611Z,12.50
2019-03-29T00:37:29.915Z,10.00
2019-03-29T00:39:59.908Z,10.47
2019-03-29T00:42:29.920Z,9.97
2019-03-29T00:45:00.406Z,13.70
2019-03-29T00:47:30.566Z,11.27
2019-03-29T00:50:00.511Z,10.97
2019-03-29T00:52:30.470Z,11.33
2019-03-29T00:55:00.495Z,10.23
2019-03-29T00:57:30.988Z,10.80
2019-03-29T01:00:01.349Z,11.47
2019-03-29T01:02:31.343Z,11.13
2019-03-29T01:05:01.346Z,10.07
2019-03-29T01:07:31.551Z,12.63
2019-03-29T01:10:01.477Z,12.80
2019-03-29T01:12:31.403Z,10.17
2019-03-29T01:15:02.304Z,12.67
2019-03-29T01:17:32.383Z,11.03
2019-03-29T01:20:02.428Z,10.97
2019-03-29T01:22:32.332Z,10.60
2019-03-29T01:25:02.340Z,9.20
2019-03-29T01:27:32.451Z,9.80
2019-03-29T01:30:02.708Z,9.80
2019-03-29T01:32:33.064Z,11.53
2019-03-29T01:35:03.078Z,9.83
2019-03-29T01:37:33.240Z,9.30
2019-03-29T01:40:03.560Z,10.27
2019-03-29T01:42:33.883Z,9.87
2019-03-29T01:45:03.773Z,9.70
2019-03-29T01:47:33.691Z,8.87
2019-03-29T01:50:03.738Z,9.43
2019-03-29T01:52:33.759Z,9.13
2019-03-29T01:55:03.991Z,10.20
2019-03-29T01:57:34.176Z,9.33
2019-03-29T02:00:05.311Z,11.77
2019-03-29T02:02:35.267Z,7.90
2019-03-29T02:05:06.215Z,9.43
2019-03-29T02:07:36.199Z,11.37
2019-03-29T02:10:08.720Z,9.47
2019-03-29T02:12:38.562Z,12.63
2019-03-29T02:15:09.059Z,10.87
2019-03-29T02:17:39.284Z,11.80
2019-03-29T02:20:09.951Z,11.43
2019-03-29T02:22:39.966Z,10.67
2019-03-29T02:25:10.248Z,14.37
2019-03-29T02:27:40.115Z,10.90
2019-03-29T02:30:11.268Z,10.30
2019-03-29T02:32:41.084Z,9.03
2019-03-29T02:35:11.618Z,8.60
2019-03-29T02:37:43.883Z,8.97
2019-03-29T02:40:13.884Z,8.90
2019-03-29T02:42:45.272Z,8.33
2019-03-29T02:45:15.769Z,9.17
2019-03-29T02:47:45.600Z,8.60
2019-03-29T02:50:15.492Z,12.23
2019-03-29T02:52:45.671Z,10.27
2019-03-29T02:55:15.681Z,9.33
2019-03-29T02:57:45.611Z,9.73
2019-03-29T03:00:16.786Z,8.90
2019-03-29T03:02:46.591Z,9.87
2019-03-29T03:05:16.455Z,9.50
2019-03-29T03:07:46.487Z,8.87
2019-03-29T03:10:17.967Z,10.97
2019-03-29T03:12:47.830Z,10.83
2019-03-29T03:15:17.878Z,8.57
2019-03-29T03:17:47.920Z,11.57
2019-03-29T03:20:18.354Z,12.20
2019-03-29T03:22:48.531Z,9.87
2019-03-29T03:25:18.413Z,11.47
2019-03-29T03:27:48.583Z,10.73
2019-03-29T03:30:18.696Z,11.20
2019-03-29T03:32:48.702Z,10.53
2019-03-29T03:35:19.300Z,9.50
2019-03-29T03:37:49.680Z,10.83
2019-03-29T03:40:19.776Z,9.57
2019-03-29T03:42:50.160Z,11.20
2019-03-29T03:45:20.325Z,10.37
2019-03-29T03:47:50.674Z,11.60
2019-03-29T03:50:35.751Z,11.30
2019-03-29T03:53:05.765Z,10.33
2019-03-29T03:55:37.995Z,11.13
2019-03-29T03:58:08.301Z,10.30
2019-03-29T04:00:58.311Z,11.50
2019-03-29T04:03:29.074Z,11.10
2019-03-29T04:05:59.379Z,11.97
2019-03-29T04:08:29.512Z,10.40
2019-03-29T04:10:59.784Z,10.77
2019-03-29T04:13:29.653Z,10.23
2019-03-29T04:15:59.548Z,10.60
2019-03-29T04:18:29.531Z,12.03
2019-03-29T04:20:59.393Z,10.47
2019-03-29T04:23:29.289Z,12.37
2019-03-29T04:25:59.216Z,11.30
2019-03-29T04:28:29.194Z,14.13
2019-03-29T04:30:59.291Z,10.40
2019-03-29T04:33:29.425Z,13.87
2019-03-29T04:35:59.300Z,12.87
2019-03-29T04:38:29.195Z,13.83
2019-03-29T04:40:59.112Z,12.13
2019-03-29T04:43:29.000Z,17.97
2019-03-29T04:45:59.335Z,14.67
2019-03-29T04:48:29.390Z,15.27
2019-03-29T04:50:59.530Z,16.93
2019-03-29T04:53:29.480Z,13.53
2019-03-29T04:55:59.359Z,15.80
2019-03-29T04:58:29.298Z,14.43
2019-03-29T05:00:59.438Z,15.53
2019-03-29T05:03:29.509Z,16.63
2019-03-29T05:05:59.455Z,15.27
2019-03-29T05:08:29.361Z,14.60
2019-03-29T05:10:59.478Z,14.17
2019-03-29T05:13:29.370Z,15.87
2019-03-29T05:15:59.624Z,16.30
2019-03-29T05:18:29.938Z,16.70
2019-03-29T05:20:59.905Z,16.10
2019-03-29T05:23:29.810Z,17.10
2019-03-29T05:25:59.762Z,14.40
2019-03-29T05:28:30.259Z,15.30
2019-03-29T05:31:00.358Z,16.67
2019-03-29T05:33:30.283Z,16.80
2019-03-29T05:36:00.293Z,17.00
2019-03-29T05:38:30.379Z,17.33
2019-03-29T05:41:00.382Z,18.17
2019-03-29T05:43:30.275Z,20.37
2019-03-29T05:46:00.462Z,18.27
2019-03-29T05:48:30.412Z,20.93
2019-03-29T05:51:00.291Z,20.93
2019-03-29T05:53:30.161Z,18.47
2019-03-29T05:56:00.532Z,21.37
2019-03-29T05:58:30.617Z,17.77
2019-03-29T06:01:00.842Z,19.50
2019-03-29T06:03:31.152Z,18.30
2019-03-29T06:06:01.459Z,17.80
2019-03-29T06:08:31.551Z,17.83
2019-03-29T06:11:01.834Z,20.13
2019-03-29T06:13:31.781Z,20.83
2019-03-29T06:16:01.852Z,19.37
2019-03-29T06:18:31.883Z,18.33
2019-03-29T06:21:02.165Z,19.63
2019-03-29T06:23:32.461Z,20.20
2019-03-29T06:26:02.452Z,19.17
2019-03-29T06:28:32.561Z,24.13
2019-03-29T06:31:02.754Z,24.43
2019-03-29T06:33:32.699Z,22.40
2019-03-29T06:36:04.451Z,22.73
2019-03-29T06:38:36.707Z,32.83
2019-03-29T06:41:09.610Z,21.27
2019-03-29T06:43:40.121Z,25.33
2019-03-29T06:46:10.344Z,23.40
2019-03-29T06:48:40.521Z,23.43
2019-03-29T06:51:10.494Z,22.87
2019-03-29T06:53:40.524Z,22.67
2019-03-29T06:56:10.450Z,20.77
2019-03-29T06:58:40.694Z,24.00
2019-03-29T07:01:10.823Z,21.30
2019-03-29T07:03:40.775Z,25.27
2019-03-29T07:06:10.704Z,24.53
2019-03-29T07:08:40.866Z,26.93
2019-03-29T07:11:17.134Z,28.73
2019-03-29T07:13:56.184Z,24.17
2019-03-29T07:16:14.743Z,23.47
2019-03-29T07:18:44.898Z,21.60
2019-03-29T07:21:21.323Z,22.83
2019-03-29T07:23:47.489Z,22.97
2019-03-29T07:26:17.418Z,20.23
2019-03-29T07:28:48.197Z,18.80
2019-03-29T07:31:18.190Z,17.97
2019-03-29T07:33:48.431Z,18.40
2019-03-29T07:36:18.779Z,16.83
2019-03-29T07:38:49.221Z,19.80
2019-03-29T07:41:31.165Z,18.00
2019-03-29T07:43:51.022Z,19.33
2019-03-29T07:46:21.192Z,16.40
2019-03-29T07:48:51.447Z,17.80
2019-03-29T07:51:21.474Z,14.00
2019-03-29T07:53:51.782Z,14.50
2019-03-29T07:56:21.687Z,14.63
2019-03-29T07:58:52.124Z,14.70
2019-03-29T08:01:22.090Z,15.33
2019-03-29T08:03:53.218Z,13.53
2019-03-29T08:06:23.676Z,15.30
2019-03-29T08:08:54.254Z,15.23
2019-03-29T08:11:26.276Z,14.57
2019-03-29T08:13:56.148Z,14.90
2019-03-29T08:16:26.460Z,13.77
2019-03-29T08:18:56.431Z,13.43
2019-03-29T08:21:30.583Z,15.30
2019-03-29T08:24:00.946Z,13.30
2019-03-29T08:26:30.974Z,13.23
2019-03-29T08:29:00.891Z,13.37
2019-03-29T08:31:31.060Z,14.53
2019-03-29T08:34:01.084Z,12.83
2019-03-29T08:36:30.979Z,17.23
2019-03-29T08:39:00.953Z,12.73
2019-03-29T08:41:31.103Z,12.83
2019-03-29T08:44:01.566Z,13.07
2019-03-29T08:46:31.620Z,12.30
2019-03-29T08:49:01.786Z,12.30
2019-03-29T08:51:31.859Z,11.97
2019-03-29T08:54:02.325Z,11.17
2019-03-29T08:56:32.191Z,11.63
2019-03-29T08:59:02.183Z,12.50
2019-03-29T09:01:32.085Z,16.77
2019-03-29T09:04:05.665Z,10.87
2019-03-29T09:06:34.596Z,10.00
2019-03-29T09:09:06.341Z,11.53
2019-03-29T09:11:38.931Z,10.47
2019-03-29T09:14:08.297Z,11.90
2019-03-29T09:16:38.384Z,10.97
2019-03-29T09:19:08.531Z,10.93
2019-03-29T09:21:38.875Z,9.67
2019-03-29T09:24:21.337Z,11.77
2019-03-29T09:26:40.706Z,9.77
2019-03-29T09:29:10.750Z,9.80
2019-03-29T09:31:40.960Z,9.33
2019-03-29T09:34:10.922Z,8.77
2019-03-29T09:36:40.825Z,8.50
2019-03-29T09:39:10.850Z,8.30
2019-03-29T09:41:40.810Z,10.33
2019-03-29T09:44:10.769Z,8.87
2019-03-29T09:46:40.655Z,7.47
2019-03-29T09:49:10.765Z,8.87
2019-03-29T09:51:40.694Z,8.40
2019-03-29T09:54:10.748Z,8.10
2019-03-29T09:56:41.101Z,8.00
2019-03-29T09:59:11.262Z,7.33
2019-03-29T10:01:41.426Z,9.23
2019-03-29T10:04:11.391Z,8.60
2019-03-29T10:06:41.439Z,8.00
2019-03-29T10:09:11.552Z,8.53
2019-03-29T10:11:41.517Z,9.30
2019-03-29T10:14:11.904Z,9.00
2019-03-29T10:16:41.962Z,7.63
2019-03-29T10:19:12.120Z,11.13
2019-03-29T10:21:43.418Z,7.37
2019-03-29T10:24:13.594Z,9.63
2019-03-29T10:26:43.615Z,7.90
2019-03-29T10:29:13.628Z,7.30
2019-03-29T10:31:43.561Z,9.87
2019-03-29T10:34:13.563Z,8.40
2019-03-29T10:36:43.671Z,7.67
2019-03-29T10:39:13.651Z,7.53
2019-03-29T10:41:43.862Z,7.80
2019-03-29T10:44:13.940Z,7.70
2019-03-29T10:46:44.252Z,6.97
2019-03-29T10:49:14.228Z,7.43
2019-03-29T10:51:44.392Z,6.10
2019-03-29T10:54:14.602Z,7.37
2019-03-29T10:56:44.540Z,8.27
2019-03-29T10:59:26.575Z,6.80
2019-03-29T11:01:47.954Z,7.70
2019-03-29T11:04:18.086Z,6.47
2019-03-29T11:06:48.295Z,7.87
2019-03-29T11:09:18.253Z,6.43
2019-03-29T11:11:48.548Z,7.10
2019-03-29T11:14:18.623Z,7.63
2019-03-29T11:16:48.587Z,5.87
2019-03-29T11:19:18.522Z,7.20
2019-03-29T11:21:48.559Z,6.23
2019-03-29T11:24:18.664Z,7.00
2019-03-29T11:26:49.154Z,7.17
2019-03-29T11:29:19.144Z,6.53
2019-03-29T11:31:49.167Z,7.47
2019-03-29T11:34:20.969Z,6.40
2019-03-29T11:36:52.828Z,5.70
2019-03-29T11:39:23.114Z,5.97
2019-03-29T11:41:53.402Z,6.80
2019-03-29T11:44:23.470Z,5.80
2019-03-29T11:46:53.810Z,5.70
2019-03-29T11:49:24.116Z,6.13
2019-03-29T11:51:54.165Z,5.73
2019-03-29T11:54:24.255Z,5.87
2019-03-29T11:56:54.652Z,5.60
2019-03-29T11:59:24.840Z,5.53
2019-03-29T12:01:54.831Z,6.43
2019-03-29T12:04:25.251Z,5.30
2019-03-29T12:06:55.421Z,5.83
2019-03-29T12:09:26.193Z,5.27
2019-03-29T12:11:56.463Z,5.10
2019-03-29T12:14:26.612Z,5.30
2019-03-29T12:16:56.838Z,5.07
2019-03-29T12:19:27.060Z,6.63
2019-03-29T12:21:57.175Z,5.70
2019-03-29T12:24:27.107Z,5.60
2019-03-29T12:26:57.098Z,4.70
2019-03-29T12:29:27.343Z,6.13
2019-03-29T12:31:57.665Z,5.50
2019-03-29T12:34:27.785Z,5.70
2019-03-29T12:36:58.114Z,5.13
2019-03-29T12:39:28.319Z,4.70
2019-03-29T12:41:58.507Z,5.00
2019-03-29T12:44:28.734Z,4.90
2019-03-29T12:46:58.937Z,5.23
2019-03-29T12:49:29.491Z,5.83
2019-03-29T12:51:59.771Z,5.53
2019-03-29T12:54:29.820Z,6.87
2019-03-29T12:56:59.964Z,5.60
2019-03-29T12:59:32.867Z,5.37
2019-03-29T13:02:02.504Z,5.67
2019-03-29T13:04:32.861Z,6.07
2019-03-29T13:07:02.973Z,5.33
2019-03-29T13:09:33.033Z,7.73
2019-03-29T13:12:03.117Z,5.30
2019-03-29T13:14:33.168Z,5.90
2019-03-29T13:17:03.260Z,5.10
2019-03-29T13:19:33.602Z,5.03
2019-03-29T13:22:05.468Z,5.37
2019-03-29T13:24:35.623Z,5.50
2019-03-29T13:27:05.778Z,5.07
2019-03-29T13:29:36.168Z,4.93
2019-03-29T13:32:06.342Z,5.43
2019-03-29T13:34:36.673Z,5.93
2019-03-29T13:37:06.770Z,5.50
2019-03-29T13:39:37.045Z,5.97
2019-03-29T13:42:07.331Z,5.70
2019-03-29T13:44:37.642Z,8.33
2019-03-29T13:47:07.712Z,6.30
2019-03-29T13:49:37.667Z,5.77
2019-03-29T13:52:07.749Z,7.10
2019-03-29T13:54:37.836Z,8.03
2019-03-29T13:57:07.896Z,6.30
2019-03-29T13:59:39.316Z,6.20
2019-03-29T14:02:09.343Z,5.77
2019-03-29T14:04:39.446Z,6.10
2019-03-29T14:07:09.576Z,7.23
2019-03-29T14:09:39.857Z,8.17
2019-03-29T14:12:09.970Z,5.93
2019-03-29T14:14:40.054Z,5.70
2019-03-29T14:17:10.171Z,6.43
2019-03-29T14:19:40.805Z,6.27
2019-03-29T14:22:10.937Z,6.30
2019-03-29T14:24:41.119Z,12.30
2019-03-29T14:27:11.224Z,7.00
2019-03-29T14:29:41.370Z,6.60
2019-03-29T14:32:11.722Z,6.50
2019-03-29T14:34:41.775Z,6.10
2019-03-29T14:37:11.855Z,6.23
2019-03-29T14:39:41.922Z,7.70
2019-03-29T14:42:12.759Z,9.07
2019-03-29T14:44:52.171Z,7.60
2019-03-29T14:47:15.541Z,7.07
2019-03-29T14:49:45.708Z,6.60
2019-03-29T14:52:15.749Z,8.13
2019-03-29T14:54:45.762Z,7.37
2019-03-29T14:57:15.879Z,8.00
2019-03-29T14:59:46.213Z,8.27
2019-03-29T15:02:16.321Z,7.93
2019-03-29T15:04:46.434Z,6.63
2019-03-29T15:07:16.705Z,7.53
2019-03-29T15:09:47.012Z,7.33
2019-03-29T15:12:17.284Z,6.80
2019-03-29T15:14:47.389Z,7.17
2019-03-29T15:17:17.700Z,7.07
2019-03-29T15:19:47.652Z,6.83
2019-03-29T15:22:17.690Z,7.43
2019-03-29T15:24:47.799Z,7.03
2019-03-29T15:27:17.793Z,7.13
2019-03-29T15:29:47.863Z,7.00
2019-03-29T15:32:18.115Z,6.87
2019-03-29T15:34:48.372Z,7.10
2019-03-29T15:37:18.611Z,7.50
2019-03-29T15:39:48.616Z,8.33
2019-03-29T15:42:20.553Z,6.63
2019-03-29T15:44:50.555Z,7.00
2019-03-29T15:47:20.858Z,6.57
2019-03-29T15:49:56.299Z,7.33
2019-03-29T15:52:22.619Z,6.13
2019-03-29T15:54:52.607Z,6.13
2019-03-29T15:57:22.686Z,6.60
2019-03-29T15:59:52.685Z,7.07
2019-03-29T16:02:22.995Z,7.10
2019-03-29T16:04:53.123Z,7.50
2019-03-29T16:07:23.624Z,6.80
2019-03-29T16:09:54.043Z,6.33
2019-03-29T16:12:24.207Z,6.50
2019-03-29T16:14:54.456Z,7.30
2019-03-29T16:17:25.190Z,7.67
2019-03-29T16:19:55.466Z,7.27
2019-03-29T16:22:25.573Z,7.10
2019-03-29T16:24:55.631Z,6.63
2019-03-29T16:27:25.881Z,6.47
2019-03-29T16:29:56.033Z,6.80
2019-03-29T16:32:26.208Z,6.40
2019-03-29T16:34:56.266Z,6.53
2019-03-29T16:37:26.363Z,9.33
2019-03-29T16:39:56.295Z,6.73
2019-03-29T16:42:26.424Z,7.20
2019-03-29T16:44:56.558Z,6.90
2019-03-29T16:47:26.916Z,6.90
2019-03-29T16:49:57.108Z,7.03
2019-03-29T16:52:27.232Z,7.53
2019-03-29T16:54:57.265Z,7.60
2019-03-29T16:57:27.342Z,8.50
2019-03-29T16:59:57.451Z,7.67
2019-03-29T17:02:27.638Z,8.00
2019-03-29T17:04:57.600Z,8.10
2019-03-29T17:07:27.743Z,10.13
2019-03-29T17:09:58.055Z,8.77
2019-03-29T17:12:28.254Z,9.23
2019-03-29T17:14:58.377Z,8.90
2019-03-29T17:17:28.486Z,8.67
2019-03-29T17:19:58.558Z,10.87
2019-03-29T17:22:28.792Z,10.37
2019-03-29T17:24:59.168Z,9.00
2019-03-29T17:27:29.115Z,9.10
2019-03-29T17:29:59.787Z,11.03
2019-03-29T17:32:29.832Z,8.23
2019-03-29T17:35:00.023Z,9.37
2019-03-29T17:37:30.087Z,9.97
2019-03-29T17:40:00.389Z,9.20
2019-03-29T17:42:30.940Z,9.90
2019-03-29T17:45:01.237Z,9.20
2019-03-29T17:47:31.520Z,6.83
2019-03-29T17:50:01.614Z,6.30
2019-03-29T17:52:31.668Z,6.33
2019-03-29T17:55:01.953Z,7.33
2019-03-29T17:57:32.208Z,6.97
2019-03-29T18:00:02.392Z,9.47
2019-03-29T18:02:32.630Z,8.30
2019-03-29T18:05:02.781Z,5.97
2019-03-29T18:07:32.819Z,6.00
2019-03-29T18:10:03.216Z,5.63
2019-03-29T18:12:33.480Z,7.53
2019-03-29T18:15:03.720Z,5.13
2019-03-29T18:17:34.028Z,6.20
2019-03-29T18:20:04.824Z,7.23
2019-03-29T18:22:35.236Z,6.70
2019-03-29T18:25:05.631Z,6.20
2019-03-29T18:27:35.845Z,11.60
2019-03-29T18:30:06.725Z,7.30
2019-03-29T18:32:37.184Z,8.90
2019-03-29T18:35:07.439Z,8.27
2019-03-29T18:37:38.561Z,6.53
2019-03-29T18:40:13.779Z,10.43
2019-03-29T18:42:44.206Z,7.97
2019-03-29T18:45:14.722Z,7.17
2019-03-29T18:47:45.333Z,7.47
2019-03-29T18:50:15.751Z,7.50
2019-03-29T18:52:46.398Z,9.93
2019-03-29T18:55:16.527Z,8.33
2019-03-29T18:57:47.146Z,8.13
2019-03-29T19:00:21.019Z,10.20
2019-03-29T19:02:51.189Z,8.60
2019-03-29T19:05:27.638Z,9.50
2019-03-29T19:07:58.164Z,11.30
2019-03-29T19:10:28.362Z,11.13
2019-03-29T19:12:58.547Z,10.00
2019-03-29T19:15:28.694Z,9.83
2019-03-29T19:17:58.926Z,10.53
2019-03-29T19:20:29.081Z,12.33
2019-03-29T19:22:59.303Z,9.53
2019-03-29T19:25:29.403Z,14.63
2019-03-29T19:27:59.501Z,9.73
2019-03-29T19:30:29.774Z,12.30
2019-03-29T19:33:00.208Z,14.00
2019-03-29T19:35:34.637Z,13.07
2019-03-29T19:38:04.919Z,13.40
2019-03-29T19:40:35.354Z,11.67
2019-03-29T19:43:05.861Z,11.97
2019-03-29T19:45:36.212Z,11.03
2019-03-29T19:48:06.454Z,10.37
2019-03-29T19:50:36.833Z,10.90
2019-03-29T19:53:07.097Z,10.27
2019-03-29T19:55:37.553Z,11.20
2019-03-29T19:58:08.045Z,12.13
2019-03-29T20:00:40.010Z,10.13
2019-03-29T20:03:10.763Z,10.57
2019-03-29T20:05:41.738Z,12.50
2019-03-29T20:08:12.294Z,16.53
2019-03-29T20:10:42.492Z,12.97
2019-03-29T20:13:12.807Z,13.03
2019-03-29T20:15:43.196Z,13.03
2019-03-29T20:18:13.303Z,11.67
2019-03-29T20:20:43.670Z,12.60
2019-03-29T20:23:14.170Z,15.03
2019-03-29T20:25:44.634Z,15.03
2019-03-29T20:28:17.624Z,13.23
2019-03-29T20:30:47.949Z,13.80
2019-03-29T20:33:18.507Z,15.83
2019-03-29T20:35:48.880Z,17.00
2019-03-29T20:38:19.054Z,17.00
2019-03-29T20:40:49.526Z,15.03
2019-03-29T20:43:19.732Z,15.27
2019-03-29T20:45:50.429Z,12.83
2019-03-29T20:48:21.204Z,14.10
2019-03-29T20:50:51.541Z,14.17
2019-03-29T20:53:22.009Z,12.60
2019-03-29T20:55:52.372Z,11.93
2019-03-29T20:58:22.555Z,10.63
2019-03-29T21:00:53.135Z,12.83
2019-03-29T21:03:23.380Z,13.77
2019-03-29T21:05:53.674Z,11.20
2019-03-29T21:08:23.879Z,10.63
2019-03-29T21:10:56.134Z,13.73
2019-03-29T21:13:26.223Z,17.00
2019-03-29T21:15:56.644Z,15.93
2019-03-29T21:18:27.139Z,11.23
2019-03-29T21:20:57.590Z,16.37
2019-03-29T21:23:28.152Z,13.63
2019-03-29T21:25:58.445Z,11.97
2019-03-29T21:28:28.844Z,14.43
2019-03-29T21:30:59.170Z,13.20
2019-03-29T21:33:29.367Z,14.67
2019-03-29T21:35:59.432Z,12.77
2019-03-29T21:38:29.708Z,12.63
2019-03-29T21:41:00.305Z,13.73
2019-03-29T21:43:30.457Z,12.00
2019-03-29T21:46:00.699Z,15.17
2019-03-29T21:48:30.719Z,11.97
2019-03-29T21:51:00.743Z,10.67
2019-03-29T21:53:30.891Z,11.93
2019-03-29T21:56:01.012Z,15.87
2019-03-29T21:58:31.075Z,11.70
2019-03-29T22:01:01.324Z,11.67
2019-03-29T22:03:31.573Z,12.23
2019-03-29T22:06:01.644Z,16.17
2019-03-29T22:08:31.813Z,13.90
2019-03-29T22:11:02.147Z,15.23
2019-03-29T22:13:32.401Z,12.73
2019-03-29T22:16:02.798Z,12.33
2019-03-29T22:18:38.124Z,13.70
2019-03-29T22:21:04.855Z,14.20
2019-03-29T22:23:35.154Z,12.63
2019-03-29T22:26:05.332Z,13.43
2019-03-29T22:28:35.614Z,15.00
2019-03-29T22:31:05.874Z,13.67
2019-03-29T22:33:36.062Z,12.10
2019-03-29T22:36:06.270Z,13.17
2019-03-29T22:38:36.434Z,16.67
2019-03-29T22:41:06.565Z,14.23
2019-03-29T22:43:36.664Z,16.43
2019-03-29T22:46:07.077Z,14.00
2019-03-29T22:48:51.343Z,12.13
2019-03-29T22:51:09.485Z,14.63
2019-03-29T22:53:39.554Z,11.83
2019-03-29T22:56:09.774Z,14.47
2019-03-29T22:58:39.820Z,13.23
2019-03-29T23:01:10.162Z,12.17
2019-03-29T23:03:40.330Z,13.63
2019-03-29T23:06:10.382Z,11.40
2019-03-29T23:08:40.719Z,11.73
2019-03-29T23:11:10.940Z,12.23
2019-03-29T23:13:40.958Z,13.20
2019-03-29T23:16:10.979Z,12.87
2019-03-29T23:18:40.871Z,13.87
2019-03-29T23:21:11.272Z,14.47
2019-03-29T23:23:41.486Z,13.53
2019-03-29T23:26:11.578Z,14.47
2019-03-29T23:28:41.686Z,12.47
2019-03-29T23:31:12.099Z,11.43
2019-03-29T23:33:42.069Z,16.13
2019-03-29T23:36:12.049Z,13.50
2019-03-29T23:38:42.132Z,12.77
2019-03-29T23:41:12.291Z,14.03
2019-03-29T23:43:42.905Z,12.40
2019-03-29T23:46:13.329Z,17.40
2019-03-29T23:48:43.826Z,16.53
2019-03-29T23:51:14.061Z,13.20
2019-03-29T23:53:43.972Z,13.27
2019-03-29T23:56:13.924Z,13.57
2019-03-29T23:58:43.822Z,12.33
